createdAt,value
2023-03-23T00:02:48.239Z,24.13
2023-03-23T00:06:00.776Z,24.55
2023-03-23T00:09:07.258Z,23.79
2023-03-23T00:12:16.826Z,24.54
2023-03-23T00:15:26.325Z,24.49
2023-03-23T00:18:33.451Z,24.89
2023-03-23T00:21:44.536Z,26.50
2023-03-23T00:24:53.179Z,26.94
2023-03-23T00:27:59.271Z,25.80
2023-03-23T00:31:12.005Z,25.55
2023-03-23T00:34:23.837Z,24.20
2023-03-23T00:37:33.316Z,22.96
2023-03-23T00:40:39.497Z,22.40
2023-03-23T00:43:52.745Z,20.60
2023-03-23T00:46:59.605Z,20.29
2023-03-23T00:50:06.756Z,20.24
2023-03-23T00:53:15.378Z,20.15
2023-03-23T00:56:22.207Z,19.93
2023-03-23T00:59:29.024Z,19.67
2023-03-23T01:02:37.064Z,19.94
2023-03-23T01:05:44.417Z,20.07
2023-03-23T01:08:56.307Z,20.90
2023-03-23T01:12:09.514Z,23.84
2023-03-23T01:15:21.396Z,28.11
2023-03-23T01:18:34.014Z,31.34
2023-03-23T01:21:42.131Z,31.86
2023-03-23T01:24:53.686Z,30.28
2023-03-23T01:28:02.296Z,30.12
2023-03-23T01:31:14.539Z,28.65
2023-03-23T01:34:21.652Z,27.27
2023-03-23T01:37:28.106Z,24.79
2023-03-23T01:40:39.270Z,24.05
2023-03-23T01:44:04.929Z,24.28
2023-03-23T01:47:27.945Z,23.39
2023-03-23T01:51:03.225Z,22.87
2023-03-23T01:54:20.488Z,22.33
2023-03-23T01:57:32.729Z,21.73
2023-03-23T02:00:53.432Z,21.00
2023-03-23T02:04:02.654Z,20.59
2023-03-23T02:07:10.360Z,19.87
2023-03-23T02:10:16.878Z,20.84
2023-03-23T02:13:33.296Z,20.30
2023-03-23T02:16:55.333Z,19.27
2023-03-23T02:20:46.995Z,19.13
2023-03-23T02:24:48.273Z,18.92
2023-03-23T02:28:46.546Z,18.13
2023-03-23T02:32:19.852Z,18.70
2023-03-23T02:35:40.080Z,19.13
2023-03-23T02:39:00.423Z,18.45
2023-03-23T02:42:14.316Z,18.54
2023-03-23T02:45:31.577Z,19.90
2023-03-23T02:48:41.191Z,21.23
2023-03-23T02:51:56.070Z,19.76
2023-03-23T02:55:13.070Z,19.08
2023-03-23T02:58:20.476Z,17.90
2023-03-23T03:01:56.868Z,17.40
2023-03-23T03:05:18.861Z,17.62
2023-03-23T03:08:40.769Z,17.51
2023-03-23T03:11:59.661Z,16.86
2023-03-23T03:15:22.695Z,16.92
2023-03-23T03:18:39.000Z,17.29
2023-03-23T03:21:50.029Z,16.09
2023-03-23T03:25:20.401Z,16.80
2023-03-23T03:28:34.711Z,16.13
2023-03-23T03:31:46.940Z,16.15
2023-03-23T03:34:53.726Z,15.63
2023-03-23T03:38:11.403Z,15.47
2023-03-23T03:41:24.624Z,15.40
2023-03-23T03:44:32.362Z,15.58
2023-03-23T03:47:45.438Z,15.38
2023-03-23T03:50:57.931Z,15.47
2023-03-23T03:54:04.193Z,16.08
2023-03-23T03:57:13.687Z,16.29
2023-03-23T04:00:22.305Z,16.27
2023-03-23T04:03:31.881Z,15.93
2023-03-23T04:06:45.017Z,15.66
2023-03-23T04:09:52.191Z,15.78
2023-03-23T04:13:11.285Z,15.50
2023-03-23T04:16:54.417Z,15.79
2023-03-23T04:20:01.298Z,15.45
2023-03-23T04:23:09.574Z,15.14
2023-03-23T04:26:23.531Z,15.09
2023-03-23T04:29:35.197Z,14.61
2023-03-23T04:33:02.572Z,15.43
2023-03-23T04:36:10.975Z,15.24
2023-03-23T04:39:19.118Z,15.20
2023-03-23T04:42:26.700Z,14.84
2023-03-23T04:45:59.908Z,14.85
2023-03-23T04:49:13.284Z,14.63
2023-03-23T04:52:23.400Z,14.56
2023-03-23T04:55:40.318Z,14.08
2023-03-23T04:58:48.769Z,13.90
2023-03-23T05:02:14.558Z,14.28
2023-03-23T05:05:36.920Z,13.76
2023-03-23T05:08:47.466Z,13.67
2023-03-23T05:11:54.350Z,13.95
2023-03-23T05:15:03.662Z,13.66
2023-03-23T05:18:14.098Z,14.30
2023-03-23T05:21:20.935Z,14.50
2023-03-23T05:24:32.542Z,13.95
2023-03-23T05:27:43.767Z,13.91
2023-03-23T05:30:59.928Z,14.62
2023-03-23T05:34:14.463Z,13.94
2023-03-23T05:37:27.933Z,13.25
2023-03-23T05:40:39.527Z,13.41
2023-03-23T05:43:52.760Z,12.68
2023-03-23T05:47:04.626Z,12.99
2023-03-23T05:50:15.610Z,12.53
2023-03-23T05:53:22.803Z,12.81
2023-03-23T05:56:29.742Z,12.58
2023-03-23T05:59:50.050Z,11.82
2023-03-23T06:03:02.373Z,12.22
2023-03-23T06:06:23.880Z,12.11
2023-03-23T06:09:44.449Z,12.00
2023-03-23T06:13:03.798Z,12.01
2023-03-23T06:16:20.209Z,11.66
2023-03-23T06:19:37.702Z,11.62
2023-03-23T06:22:56.088Z,11.63
2023-03-23T06:26:12.338Z,11.16
2023-03-23T06:29:21.617Z,11.17
2023-03-23T06:32:37.494Z,11.51
2023-03-23T06:35:47.678Z,11.69
2023-03-23T06:39:08.329Z,11.60
2023-03-23T06:42:34.522Z,11.49
2023-03-23T06:46:15.707Z,11.64
2023-03-23T06:49:22.274Z,12.03
2023-03-23T06:52:35.335Z,11.43
2023-03-23T06:55:48.092Z,12.07
2023-03-23T06:58:55.060Z,11.47
2023-03-23T07:02:03.088Z,12.29
2023-03-23T07:05:11.920Z,12.15
2023-03-23T07:08:19.012Z,11.92
2023-03-23T07:11:34.195Z,13.51
2023-03-23T07:14:47.150Z,13.52
2023-03-23T07:17:55.692Z,13.70
2023-03-23T07:21:14.084Z,14.08
2023-03-23T07:24:21.938Z,13.58
2023-03-23T07:28:05.076Z,14.77
2023-03-23T07:31:12.624Z,15.98
2023-03-23T07:34:18.935Z,17.97
2023-03-23T07:37:46.672Z,18.17
2023-03-23T07:40:53.775Z,15.70
2023-03-23T07:44:04.045Z,14.39
2023-03-23T07:47:14.714Z,14.05
2023-03-23T07:50:23.470Z,13.74
2023-03-23T07:53:29.799Z,12.92
2023-03-23T07:56:54.258Z,13.84
2023-03-23T08:00:20.404Z,12.61
2023-03-23T08:03:28.377Z,11.75
2023-03-23T08:06:57.520Z,11.59
2023-03-23T08:10:38.025Z,11.40
2023-03-23T08:14:21.967Z,11.29
2023-03-23T08:18:05.070Z,11.10
2023-03-23T08:21:20.196Z,10.77
2023-03-23T08:24:50.039Z,10.77
2023-03-23T08:28:29.029Z,9.96
2023-03-23T08:32:12.122Z,10.37
2023-03-23T08:36:02.857Z,10.71
2023-03-23T08:39:35.609Z,9.50
2023-03-23T08:43:03.077Z,9.64
2023-03-23T08:46:42.411Z,9.15
2023-03-23T08:49:58.110Z,9.65
2023-03-23T08:53:31.561Z,13.60
2023-03-23T08:56:57.964Z,9.92
2023-03-23T09:00:17.788Z,10.18
2023-03-23T09:03:53.135Z,10.70
2023-03-23T09:07:10.774Z,11.24
2023-03-23T09:10:21.556Z,10.88
2023-03-23T09:13:28.303Z,11.02
2023-03-23T09:16:41.240Z,10.92
2023-03-23T09:19:48.289Z,11.91
2023-03-23T09:23:08.297Z,10.76
2023-03-23T09:26:18.673Z,11.36
2023-03-23T09:29:25.128Z,9.63
2023-03-23T09:32:48.932Z,9.78
2023-03-23T09:35:55.063Z,10.19
2023-03-23T09:39:05.872Z,9.67
2023-03-23T09:42:44.652Z,9.99
2023-03-23T09:46:21.440Z,10.76
2023-03-23T09:49:41.992Z,11.36
2023-03-23T09:53:09.143Z,11.39
2023-03-23T09:56:20.015Z,12.90
2023-03-23T09:59:43.481Z,12.13
2023-03-23T10:03:04.185Z,9.57
2023-03-23T10:06:16.584Z,8.16
2023-03-23T10:09:27.169Z,7.94
2023-03-23T10:12:49.246Z,7.74
2023-03-23T10:16:00.897Z,7.42
2023-03-23T10:19:22.022Z,7.37
2023-03-23T10:22:40.760Z,7.61
2023-03-23T10:26:11.559Z,6.61
2023-03-23T10:29:46.986Z,7.16
2023-03-23T10:33:18.786Z,6.63
2023-03-23T10:36:33.408Z,6.16
2023-03-23T10:39:52.918Z,6.56
2023-03-23T10:43:00.091Z,7.77
2023-03-23T10:46:31.790Z,7.02
2023-03-23T10:49:49.464Z,6.15
2023-03-23T10:53:01.399Z,6.16
2023-03-23T10:56:26.197Z,6.68
2023-03-23T10:59:38.958Z,6.96
2023-03-23T11:02:50.319Z,6.99
2023-03-23T11:06:10.191Z,6.54
2023-03-23T11:09:19.797Z,6.48
2023-03-23T11:12:32.796Z,6.71
2023-03-23T11:15:43.448Z,6.88
2023-03-23T11:18:50.469Z,7.40
2023-03-23T11:22:24.000Z,7.85
2023-03-23T11:25:30.809Z,7.93
2023-03-23T11:28:49.226Z,7.87
2023-03-23T11:32:09.125Z,8.96
2023-03-23T11:35:25.189Z,8.85
2023-03-23T11:38:36.770Z,10.49
2023-03-23T11:41:43.191Z,8.28
2023-03-23T11:44:50.852Z,7.64
2023-03-23T11:48:16.096Z,7.24
2023-03-23T11:51:35.687Z,7.00
2023-03-23T11:54:54.939Z,6.70
2023-03-23T11:58:16.139Z,8.19
2023-03-23T12:01:45.541Z,6.64
2023-03-23T12:05:37.547Z,8.16
2023-03-23T12:09:14.020Z,7.57
2023-03-23T12:12:54.048Z,8.46
2023-03-23T12:16:14.900Z,8.39
2023-03-23T12:19:35.963Z,9.17
2023-03-23T12:23:05.752Z,7.89
2023-03-23T12:26:23.955Z,6.75
2023-03-23T12:29:57.550Z,7.37
2023-03-23T12:33:28.575Z,6.71
2023-03-23T12:36:55.117Z,6.80
2023-03-23T12:40:39.932Z,6.59
2023-03-23T12:44:01.782Z,6.37
2023-03-23T12:47:38.992Z,8.06
2023-03-23T12:51:06.767Z,6.39
2023-03-23T12:54:26.844Z,5.98
2023-03-23T12:57:44.018Z,6.40
2023-03-23T13:01:05.020Z,6.45
2023-03-23T13:04:22.869Z,7.17
2023-03-23T13:07:40.001Z,9.56
2023-03-23T13:10:52.141Z,7.78
2023-03-23T13:14:09.951Z,6.40
2023-03-23T13:17:33.758Z,5.79
2023-03-23T13:21:00.041Z,5.32
2023-03-23T13:24:12.726Z,5.31
2023-03-23T13:27:19.571Z,5.23
2023-03-23T13:30:29.625Z,5.20
2023-03-23T13:33:40.128Z,5.37
2023-03-23T13:36:58.998Z,5.60
2023-03-23T13:40:29.933Z,5.40
2023-03-23T13:43:42.833Z,5.65
2023-03-23T13:47:02.302Z,5.64
2023-03-23T13:50:30.884Z,5.53
2023-03-23T13:53:52.966Z,5.55
2023-03-23T13:57:04.398Z,6.27
2023-03-23T14:00:52.278Z,6.40
2023-03-23T14:04:00.406Z,7.03
2023-03-23T14:07:16.602Z,6.60
2023-03-23T14:10:26.458Z,6.17
2023-03-23T14:13:49.724Z,6.88
2023-03-23T14:16:56.831Z,7.11
2023-03-23T14:20:08.713Z,7.67
2023-03-23T14:23:24.041Z,7.34
2023-03-23T14:26:37.768Z,7.30
2023-03-23T14:29:46.990Z,6.90
2023-03-23T14:32:56.513Z,6.36
2023-03-23T14:36:04.668Z,6.56
2023-03-23T14:39:27.935Z,6.67
2023-03-23T14:42:40.770Z,7.30
2023-03-23T14:45:52.747Z,8.27
2023-03-23T14:49:03.621Z,8.55
2023-03-23T14:52:16.744Z,8.98
2023-03-23T14:55:28.281Z,8.38
2023-03-23T14:58:38.580Z,8.69
2023-03-23T15:01:50.043Z,8.73
2023-03-23T15:05:04.316Z,9.82
2023-03-23T15:08:18.877Z,10.85
2023-03-23T15:11:31.333Z,12.27
2023-03-23T15:14:50.945Z,10.28
2023-03-23T15:17:58.771Z,9.47
2023-03-23T15:21:16.122Z,12.97
2023-03-23T15:24:37.234Z,14.36
2023-03-23T15:27:50.345Z,13.20
2023-03-23T15:31:06.410Z,11.48
2023-03-23T15:34:35.569Z,12.53
2023-03-23T15:37:49.582Z,13.33
2023-03-23T15:41:00.889Z,13.59
2023-03-23T15:44:36.677Z,11.78
2023-03-23T15:47:58.775Z,13.09
2023-03-23T15:51:09.148Z,8.15
2023-03-23T15:54:20.117Z,6.94
2023-03-23T15:57:26.976Z,6.56
2023-03-23T16:00:36.118Z,6.55
2023-03-23T16:03:51.969Z,6.74
2023-03-23T16:07:01.368Z,8.98
2023-03-23T16:10:17.876Z,12.11
2023-03-23T16:13:25.582Z,11.89
2023-03-23T16:16:39.547Z,13.00
2023-03-23T16:19:48.211Z,14.84
2023-03-23T16:22:59.197Z,17.74
2023-03-23T16:26:05.436Z,17.05
2023-03-23T16:29:40.165Z,19.48
2023-03-23T16:32:50.485Z,14.94
2023-03-23T16:36:01.721Z,13.58
2023-03-23T16:39:08.456Z,13.57
2023-03-23T16:42:15.966Z,13.77
2023-03-23T16:45:24.416Z,15.67
2023-03-23T16:48:31.489Z,15.97
2023-03-23T16:51:41.098Z,14.88
2023-03-23T16:55:06.040Z,16.44
2023-03-23T16:58:17.061Z,14.58
2023-03-23T17:01:44.840Z,13.51
2023-03-23T17:05:18.815Z,15.51
2023-03-23T17:08:28.458Z,20.20
2023-03-23T17:11:36.261Z,21.33
2023-03-23T17:14:43.210Z,17.05
2023-03-23T17:17:49.345Z,15.06
2023-03-23T17:20:57.585Z,14.94
2023-03-23T17:24:19.587Z,15.35
2023-03-23T17:27:26.768Z,16.37
2023-03-23T17:30:35.981Z,28.86
2023-03-23T17:33:42.852Z,31.33
2023-03-23T17:36:49.088Z,26.67
2023-03-23T17:39:58.606Z,35.57
2023-03-23T17:43:16.801Z,36.72
2023-03-23T17:46:43.995Z,32.54
2023-03-23T17:49:50.063Z,30.50
2023-03-23T17:53:03.783Z,35.79
2023-03-23T17:56:19.138Z,28.20
2023-03-23T17:59:26.042Z,33.19
2023-03-23T18:02:32.356Z,39.68
2023-03-23T18:05:46.405Z,44.86
2023-03-23T18:08:52.400Z,58.12
2023-03-23T18:12:11.635Z,53.35
2023-03-23T18:15:17.781Z,45.81
2023-03-23T18:18:25.605Z,46.43
2023-03-23T18:21:31.688Z,39.37
2023-03-23T18:24:38.543Z,40.71
2023-03-23T18:27:47.375Z,46.57
2023-03-23T18:31:07.982Z,59.62
2023-03-23T18:34:25.161Z,56.42
2023-03-23T18:37:32.164Z,57.85
2023-03-23T18:40:38.249Z,53.06
2023-03-23T18:43:48.580Z,50.95
2023-03-23T18:46:54.631Z,49.64
2023-03-23T18:50:01.871Z,43.84
2023-03-23T18:53:07.887Z,40.31
2023-03-23T18:56:19.317Z,37.46
2023-03-23T18:59:31.495Z,34.86
2023-03-23T19:02:40.429Z,37.37
2023-03-23T19:05:55.820Z,34.13
2023-03-23T19:09:25.673Z,29.08
2023-03-23T19:12:32.361Z,25.82
2023-03-23T19:15:44.550Z,24.98
2023-03-23T19:18:50.858Z,24.18
2023-03-23T19:21:57.771Z,25.43
2023-03-23T19:25:03.904Z,24.86
2023-03-23T19:28:58.977Z,24.62
2023-03-23T19:31:39.888Z,25.26
2023-03-23T19:34:50.935Z,27.48
2023-03-23T19:37:57.656Z,29.30
2023-03-23T19:41:05.796Z,32.79
2023-03-23T19:44:12.259Z,34.63
2023-03-23T19:47:30.940Z,32.61
2023-03-23T19:50:56.716Z,32.54
2023-03-23T19:54:06.751Z,31.32
2023-03-23T19:57:22.696Z,28.64
2023-03-23T20:00:29.552Z,24.81
2023-03-23T20:03:49.084Z,23.38
2023-03-23T20:06:58.251Z,21.65
2023-03-23T20:10:06.202Z,21.89
2023-03-23T20:13:15.280Z,20.44
2023-03-23T20:16:22.188Z,19.47
2023-03-23T20:19:31.800Z,18.71
2023-03-23T20:22:38.083Z,17.95
2023-03-23T20:25:45.520Z,17.49
2023-03-23T20:28:52.347Z,18.02
2023-03-23T20:32:00.613Z,17.91
2023-03-23T20:35:13.254Z,17.51
2023-03-23T20:38:20.112Z,16.77
2023-03-23T20:41:26.997Z,15.69
2023-03-23T20:44:35.208Z,15.52
2023-03-23T20:47:42.365Z,15.94
2023-03-23T20:51:00.473Z,15.96
2023-03-23T20:54:11.406Z,16.03
2023-03-23T20:57:18.897Z,15.99
2023-03-23T21:00:25.526Z,16.07
2023-03-23T21:03:40.357Z,16.50
2023-03-23T21:06:53.476Z,16.20
2023-03-23T21:10:05.493Z,16.97
2023-03-23T21:13:11.696Z,17.57
2023-03-23T21:16:24.060Z,18.20
2023-03-23T21:19:30.366Z,19.71
2023-03-23T21:22:40.127Z,19.83
2023-03-23T21:25:48.017Z,19.49
2023-03-23T21:28:54.864Z,19.88
2023-03-23T21:32:08.562Z,18.74
2023-03-23T21:35:16.580Z,18.78
2023-03-23T21:38:26.882Z,16.90
2023-03-23T21:41:41.734Z,16.83
2023-03-23T21:44:49.026Z,16.03
2023-03-23T21:47:57.288Z,15.99
2023-03-23T21:51:09.551Z,15.40
2023-03-23T21:54:19.062Z,14.45
2023-03-23T21:57:25.113Z,13.12
2023-03-23T22:00:32.922Z,13.20
2023-03-23T22:03:39.297Z,14.06
2023-03-23T22:06:46.412Z,12.59
2023-03-23T22:09:55.557Z,12.92
2023-03-23T22:13:02.442Z,10.99
2023-03-23T22:16:13.579Z,10.14
2023-03-23T22:19:20.608Z,10.05
2023-03-23T22:22:26.685Z,9.16
2023-03-23T22:25:36.663Z,9.14
2023-03-23T22:28:43.861Z,8.74
2023-03-23T22:31:50.806Z,7.98
2023-03-23T22:34:56.868Z,8.18
2023-03-23T22:38:04.452Z,8.22
2023-03-23T22:41:20.843Z,8.34
2023-03-23T22:44:42.203Z,7.97
2023-03-23T22:47:48.542Z,7.70
2023-03-23T22:50:55.482Z,7.73
2023-03-23T22:54:05.258Z,7.91
2023-03-23T22:57:15.139Z,7.73
2023-03-23T23:00:21.977Z,8.08
2023-03-23T23:03:29.907Z,8.50
2023-03-23T23:06:36.807Z,8.48
2023-03-23T23:09:44.424Z,8.76
2023-03-23T23:12:54.436Z,8.94
2023-03-23T23:16:04.185Z,9.26
2023-03-23T23:19:10.185Z,9.73
2023-03-23T23:22:19.429Z,9.61
2023-03-23T23:25:28.950Z,10.00
2023-03-23T23:28:39.261Z,11.47
2023-03-23T23:31:45.701Z,14.24
2023-03-23T23:34:53.291Z,14.86
2023-03-23T23:37:59.374Z,15.06
2023-03-23T23:41:06.331Z,14.27
2023-03-23T23:44:14.968Z,10.35
2023-03-23T23:47:22.087Z,9.02
2023-03-23T23:50:31.631Z,8.45
2023-03-23T23:53:38.386Z,7.50
2023-03-23T23:56:44.436Z,7.13
2023-03-23T23:59:54.552Z,7.02
